Page, Arizona
Current Conditions -  °F | °C
As of 12:53 AM on Thursday 29 Jan 2015 (Local Time) from KBCE Reporting Station
Clear Clear  
Wind Chill: 24°   Ceiling: Unl
Heat Index: 29°   Visibility: 10mi
Dew Point: 27°   Wind: 5mph
Humidity: 92%   Direction: 290°WNW
Pressure: 30.34"   Gusts: NA
Location:  36.92°N, 111.46°W
Report Text: KBCE 290753Z AUTO 29004KT 10SM CLR M02/M03 A3034 RMK AO2 SLP233 T10171028 $
Loading
Personal Weather Stations






























Interactive Weather Map New forecast layout! Learn more

10-Day Weather Forecast

Advertisements
Track Severe Weather on mobile